sensor_id;sensor_type;location;lat;lon;timestamp;pressure;altitude;pressure_sealevel;temperature
14851;BMP180;7517;48.400;11.770;2024-03-08T00:00:54;96310.00;;;6.10
14851;BMP180;7517;48.400;11.770;2024-03-08T00:03:22;96317.00;;;6.10
14851;BMP180;7517;48.400;11.770;2024-03-08T00:05:49;96308.00;;;6.00
14851;BMP180;7517;48.400;11.770;2024-03-08T00:08:17;96309.00;;;6.00
14851;BMP180;7517;48.400;11.770;2024-03-08T00:10:46;96305.00;;;6.00
14851;BMP180;7517;48.400;11.770;2024-03-08T00:13:14;96303.00;;;6.00
14851;BMP180;7517;48.400;11.770;2024-03-08T00:15:42;96306.00;;;6.00
14851;BMP180;7517;48.400;11.770;2024-03-08T00:18:11;96296.00;;;6.00
14851;BMP180;7517;48.400;11.770;2024-03-08T00:20:38;96304.00;;;6.00
14851;BMP180;7517;48.400;11.770;2024-03-08T00:23:07;96288.00;;;6.00
14851;BMP180;7517;48.400;11.770;2024-03-08T00:25:34;96298.00;;;5.90
14851;BMP180;7517;48.400;11.770;2024-03-08T00:28:04;96290.00;;;5.90
14851;BMP180;7517;48.400;11.770;2024-03-08T00:30:31;96279.00;;;5.90
14851;BMP180;7517;48.400;11.770;2024-03-08T00:32:59;96282.00;;;5.90
14851;BMP180;7517;48.400;11.770;2024-03-08T00:35:26;96274.00;;;5.90
14851;BMP180;7517;48.400;11.770;2024-03-08T00:37:53;96280.00;;;5.90
14851;BMP180;7517;48.400;11.770;2024-03-08T00:40:22;96274.00;;;5.90
14851;BMP180;7517;48.400;11.770;2024-03-08T00:42:49;96274.00;;;5.90
14851;BMP180;7517;48.400;11.770;2024-03-08T00:45:20;96274.00;;;5.90
14851;BMP180;7517;48.400;11.770;2024-03-08T00:47:49;96268.00;;;5.90
14851;BMP180;7517;48.400;11.770;2024-03-08T00:50:16;96268.00;;;5.90
14851;BMP180;7517;48.400;11.770;2024-03-08T00:52:44;96263.00;;;5.80
14851;BMP180;7517;48.400;11.770;2024-03-08T00:55:12;96267.00;;;5.80
14851;BMP180;7517;48.400;11.770;2024-03-08T00:57:41;96267.00;;;5.80
14851;BMP180;7517;48.400;11.770;2024-03-08T01:00:09;96266.00;;;5.80
14851;BMP180;7517;48.400;11.770;2024-03-08T01:02:39;96266.00;;;5.80
14851;BMP180;7517;48.400;11.770;2024-03-08T01:05:08;96262.00;;;5.80
14851;BMP180;7517;48.400;11.770;2024-03-08T01:07:35;96259.00;;;5.80
14851;BMP180;7517;48.400;11.770;2024-03-08T01:10:03;96258.00;;;5.80
14851;BMP180;7517;48.400;11.770;2024-03-08T01:12:35;96248.00;;;5.80
14851;BMP180;7517;48.400;11.770;2024-03-08T01:15:03;96258.00;;;5.80
14851;BMP180;7517;48.400;11.770;2024-03-08T01:17:30;96251.00;;;5.80
14851;BMP180;7517;48.400;11.770;2024-03-08T01:19:59;96252.00;;;5.80
14851;BMP180;7517;48.400;11.770;2024-03-08T01:22:27;96245.00;;;5.80
14851;BMP180;7517;48.400;11.770;2024-03-08T01:24:55;96245.00;;;5.70
14851;BMP180;7517;48.400;11.770;2024-03-08T01:27:22;96240.00;;;5.70
14851;BMP180;7517;48.400;11.770;2024-03-08T01:29:50;96239.00;;;5.70
14851;BMP180;7517;48.400;11.770;2024-03-08T01:32:18;96231.00;;;5.70
14851;BMP180;7517;48.400;11.770;2024-03-08T01:34:47;96219.00;;;5.70
14851;BMP180;7517;48.400;11.770;2024-03-08T01:37:16;96222.00;;;5.70
14851;BMP180;7517;48.400;11.770;2024-03-08T01:39:43;96220.00;;;5.60
14851;BMP180;7517;48.400;11.770;2024-03-08T01:42:10;96221.00;;;5.60
14851;BMP180;7517;48.400;11.770;2024-03-08T01:44:41;96228.00;;;5.60
14851;BMP180;7517;48.400;11.770;2024-03-08T01:47:10;96210.00;;;5.60
14851;BMP180;7517;48.400;11.770;2024-03-08T01:49:38;96202.00;;;5.60
14851;BMP180;7517;48.400;11.770;2024-03-08T01:52:07;96200.00;;;5.60
14851;BMP180;7517;48.400;11.770;2024-03-08T01:54:36;96199.00;;;5.60
14851;BMP180;7517;48.400;11.770;2024-03-08T01:57:05;96191.00;;;5.60
14851;BMP180;7517;48.400;11.770;2024-03-08T01:59:33;96196.00;;;5.60
14851;BMP180;7517;48.400;11.770;2024-03-08T02:02:01;96198.00;;;5.50
14851;BMP180;7517;48.400;11.770;2024-03-08T02:04:30;96196.00;;;5.50
14851;BMP180;7517;48.400;11.770;2024-03-08T02:06:57;96191.00;;;5.50
14851;BMP180;7517;48.400;11.770;2024-03-08T02:09:25;96186.00;;;5.50
14851;BMP180;7517;48.400;11.770;2024-03-08T02:11:56;96185.00;;;5.50
14851;BMP180;7517;48.400;11.770;2024-03-08T02:14:24;96184.00;;;5.50
14851;BMP180;7517;48.400;11.770;2024-03-08T02:16:51;96168.00;;;5.50
14851;BMP180;7517;48.400;11.770;2024-03-08T02:19:19;96169.00;;;5.40
14851;BMP180;7517;48.400;11.770;2024-03-08T02:21:48;96161.00;;;5.40
14851;BMP180;7517;48.400;11.770;2024-03-08T02:24:16;96169.00;;;5.40
14851;BMP180;7517;48.400;11.770;2024-03-08T02:26:43;96155.00;;;5.40
14851;BMP180;7517;48.400;11.770;2024-03-08T02:29:10;96161.00;;;5.40
14851;BMP180;7517;48.400;11.770;2024-03-08T02:31:38;96154.00;;;5.40
14851;BMP180;7517;48.400;11.770;2024-03-08T02:34:05;96158.00;;;5.40
14851;BMP180;7517;48.400;11.770;2024-03-08T02:36:32;96158.00;;;5.40
14851;BMP180;7517;48.400;11.770;2024-03-08T02:39:02;96149.00;;;5.40
14851;BMP180;7517;48.400;11.770;2024-03-08T02:41:31;96155.00;;;5.40
14851;BMP180;7517;48.400;11.770;2024-03-08T02:43:58;96161.00;;;5.40
14851;BMP180;7517;48.400;11.770;2024-03-08T02:46:25;96147.00;;;5.40
14851;BMP180;7517;48.400;11.770;2024-03-08T02:48:53;96147.00;;;5.40
14851;BMP180;7517;48.400;11.770;2024-03-08T02:51:20;96159.00;;;5.30
14851;BMP180;7517;48.400;11.770;2024-03-08T02:53:47;96152.00;;;5.30
14851;BMP180;7517;48.400;11.770;2024-03-08T02:56:19;96150.00;;;5.30
14851;BMP180;7517;48.400;11.770;2024-03-08T02:58:47;96148.00;;;5.30
14851;BMP180;7517;48.400;11.770;2024-03-08T03:01:15;96150.00;;;5.30
14851;BMP180;7517;48.400;11.770;2024-03-08T03:03:42;96144.00;;;5.30
14851;BMP180;7517;48.400;11.770;2024-03-08T03:06:09;96149.00;;;5.30
14851;BMP180;7517;48.400;11.770;2024-03-08T03:08:37;96143.00;;;5.30
14851;BMP180;7517;48.400;11.770;2024-03-08T03:11:09;96140.00;;;5.30
14851;BMP180;7517;48.400;11.770;2024-03-08T03:13:40;96129.00;;;5.30
14851;BMP180;7517;48.400;11.770;2024-03-08T03:16:17;96130.00;;;5.20
14851;BMP180;7517;48.400;11.770;2024-03-08T03:18:46;96129.00;;;5.20
14851;BMP180;7517;48.400;11.770;2024-03-08T03:21:14;96130.00;;;5.20
14851;BMP180;7517;48.400;11.770;2024-03-08T03:23:43;96126.00;;;5.30
14851;BMP180;7517;48.400;11.770;2024-03-08T03:26:10;96120.00;;;5.20
14851;BMP180;7517;48.400;11.770;2024-03-08T03:28:39;96130.00;;;5.30
14851;BMP180;7517;48.400;11.770;2024-03-08T03:31:07;96128.00;;;5.30
14851;BMP180;7517;48.400;11.770;2024-03-08T03:33:35;96137.00;;;5.30
14851;BMP180;7517;48.400;11.770;2024-03-08T03:36:04;96126.00;;;5.30
14851;BMP180;7517;48.400;11.770;2024-03-08T03:38:34;96126.00;;;5.40
14851;BMP180;7517;48.400;11.770;2024-03-08T03:41:02;96126.00;;;5.40
14851;BMP180;7517;48.400;11.770;2024-03-08T03:43:36;96138.00;;;5.50
14851;BMP180;7517;48.400;11.770;2024-03-08T03:46:07;96123.00;;;5.60
14851;BMP180;7517;48.400;11.770;2024-03-08T03:48:36;96132.00;;;5.60
14851;BMP180;7517;48.400;11.770;2024-03-08T03:51:04;96120.00;;;5.70
14851;BMP180;7517;48.400;11.770;2024-03-08T03:53:31;96124.00;;;5.70
14851;BMP180;7517;48.400;11.770;2024-03-08T03:55:58;96123.00;;;5.80
14851;BMP180;7517;48.400;11.770;2024-03-08T03:58:25;96133.00;;;5.80
14851;BMP180;7517;48.400;11.770;2024-03-08T04:00:53;96128.00;;;5.90
14851;BMP180;7517;48.400;11.770;2024-03-08T04:03:22;96134.00;;;5.90
14851;BMP180;7517;48.400;11.770;2024-03-08T04:05:50;96124.00;;;6.00
14851;BMP180;7517;48.400;11.770;2024-03-08T04:08:17;96119.00;;;6.00
14851;BMP180;7517;48.400;11.770;2024-03-08T04:10:45;96126.00;;;6.10
14851;BMP180;7517;48.400;11.770;2024-03-08T04:13:12;96124.00;;;6.10
14851;BMP180;7517;48.400;11.770;2024-03-08T04:15:41;96129.00;;;6.10
14851;BMP180;7517;48.400;11.770;2024-03-08T04:18:09;96132.00;;;6.20
14851;BMP180;7517;48.400;11.770;2024-03-08T04:20:41;96119.00;;;6.20
14851;BMP180;7517;48.400;11.770;2024-03-08T04:23:08;96118.00;;;6.20
14851;BMP180;7517;48.400;11.770;2024-03-08T04:25:35;96121.00;;;6.30
14851;BMP180;7517;48.400;11.770;2024-03-08T04:28:04;96114.00;;;6.30
14851;BMP180;7517;48.400;11.770;2024-03-08T04:30:31;96123.00;;;6.30
14851;BMP180;7517;48.400;11.770;2024-03-08T04:32:59;96109.00;;;6.30
14851;BMP180;7517;48.400;11.770;2024-03-08T04:35:29;96104.00;;;6.30
14851;BMP180;7517;48.400;11.770;2024-03-08T04:37:58;96105.00;;;6.30
14851;BMP180;7517;48.400;11.770;2024-03-08T04:40:26;96105.00;;;6.30
14851;BMP180;7517;48.400;11.770;2024-03-08T04:42:54;96106.00;;;6.30
14851;BMP180;7517;48.400;11.770;2024-03-08T04:45:21;96114.00;;;6.20
14851;BMP180;7517;48.400;11.770;2024-03-08T04:47:49;96104.00;;;6.20
14851;BMP180;7517;48.400;11.770;2024-03-08T04:50:17;96106.00;;;6.20
14851;BMP180;7517;48.400;11.770;2024-03-08T04:52:44;96109.00;;;6.20
14851;BMP180;7517;48.400;11.770;2024-03-08T04:55:13;96102.00;;;6.20
14851;BMP180;7517;48.400;11.770;2024-03-08T04:57:40;96103.00;;;6.10
14851;BMP180;7517;48.400;11.770;2024-03-08T05:00:13;96098.00;;;6.10
14851;BMP180;7517;48.400;11.770;2024-03-08T05:02:41;96100.00;;;6.10
14851;BMP180;7517;48.400;11.770;2024-03-08T05:05:08;96093.00;;;6.00
14851;BMP180;7517;48.400;11.770;2024-03-08T05:07:37;96094.00;;;6.00
14851;BMP180;7517;48.400;11.770;2024-03-08T05:10:07;96089.00;;;6.00
14851;BMP180;7517;48.400;11.770;2024-03-08T05:12:36;96084.00;;;5.90
14851;BMP180;7517;48.400;11.770;2024-03-08T05:15:05;96078.00;;;5.90
14851;BMP180;7517;48.400;11.770;2024-03-08T05:17:34;96084.00;;;5.90
14851;BMP180;7517;48.400;11.770;2024-03-08T05:20:02;96083.00;;;5.90
14851;BMP180;7517;48.400;11.770;2024-03-08T05:22:34;96080.00;;;5.80
14851;BMP180;7517;48.400;11.770;2024-03-08T05:25:01;96086.00;;;5.80
14851;BMP180;7517;48.400;11.770;2024-03-08T05:27:29;96082.00;;;5.80
14851;BMP180;7517;48.400;11.770;2024-03-08T05:29:58;96079.00;;;5.70
14851;BMP180;7517;48.400;11.770;2024-03-08T05:32:25;96079.00;;;5.70
14851;BMP180;7517;48.400;11.770;2024-03-08T05:34:52;96081.00;;;5.70
14851;BMP180;7517;48.400;11.770;2024-03-08T05:37:20;96076.00;;;5.70
14851;BMP180;7517;48.400;11.770;2024-03-08T05:39:47;96070.00;;;5.70
14851;BMP180;7517;48.400;11.770;2024-03-08T05:42:14;96078.00;;;5.60
14851;BMP180;7517;48.400;11.770;2024-03-08T05:44:42;96075.00;;;5.60
14851;BMP180;7517;48.400;11.770;2024-03-08T05:47:10;96073.00;;;5.60
14851;BMP180;7517;48.400;11.770;2024-03-08T05:49:38;96064.00;;;5.50
14851;BMP180;7517;48.400;11.770;2024-03-08T05:52:06;96074.00;;;5.50
14851;BMP180;7517;48.400;11.770;2024-03-08T05:54:37;96074.00;;;5.50
14851;BMP180;7517;48.400;11.770;2024-03-08T05:57:07;96079.00;;;5.50
14851;BMP180;7517;48.400;11.770;2024-03-08T05:59:36;96070.00;;;5.50
14851;BMP180;7517;48.400;11.770;2024-03-08T06:02:03;96081.00;;;5.50
14851;BMP180;7517;48.400;11.770;2024-03-08T06:04:32;96069.00;;;5.40
14851;BMP180;7517;48.400;11.770;2024-03-08T06:07:00;96067.00;;;5.40
14851;BMP180;7517;48.400;11.770;2024-03-08T06:09:29;96069.00;;;5.40
14851;BMP180;7517;48.400;11.770;2024-03-08T06:11:56;96065.00;;;5.40
14851;BMP180;7517;48.400;11.770;2024-03-08T06:14:24;96068.00;;;5.50
14851;BMP180;7517;48.400;11.770;2024-03-08T06:16:51;96050.00;;;5.50
14851;BMP180;7517;48.400;11.770;2024-03-08T06:19:20;96065.00;;;5.50
14851;BMP180;7517;48.400;11.770;2024-03-08T06:21:49;96063.00;;;5.60
14851;BMP180;7517;48.400;11.770;2024-03-08T06:24:16;96058.00;;;5.60
14851;BMP180;7517;48.400;11.770;2024-03-08T06:26:43;96062.00;;;5.70
14851;BMP180;7517;48.400;11.770;2024-03-08T06:29:11;96064.00;;;5.70
14851;BMP180;7517;48.400;11.770;2024-03-08T06:31:41;96064.00;;;5.70
14851;BMP180;7517;48.400;11.770;2024-03-08T06:34:08;96075.00;;;5.80
14851;BMP180;7517;48.400;11.770;2024-03-08T06:36:36;96067.00;;;5.80
14851;BMP180;7517;48.400;11.770;2024-03-08T06:39:05;96056.00;;;5.90
14851;BMP180;7517;48.400;11.770;2024-03-08T06:41:36;96069.00;;;5.90
14851;BMP180;7517;48.400;11.770;2024-03-08T06:44:03;96061.00;;;5.90
14851;BMP180;7517;48.400;11.770;2024-03-08T06:46:31;96067.00;;;6.00
14851;BMP180;7517;48.400;11.770;2024-03-08T06:48:59;96065.00;;;6.00
14851;BMP180;7517;48.400;11.770;2024-03-08T06:51:27;96068.00;;;6.00
14851;BMP180;7517;48.400;11.770;2024-03-08T06:53:54;96060.00;;;6.00
14851;BMP180;7517;48.400;11.770;2024-03-08T06:56:23;96070.00;;;6.10
14851;BMP180;7517;48.400;11.770;2024-03-08T06:58:51;96068.00;;;6.10
14851;BMP180;7517;48.400;11.770;2024-03-08T07:01:20;96072.00;;;6.10
14851;BMP180;7517;48.400;11.770;2024-03-08T07:03:48;96063.00;;;6.20
14851;BMP180;7517;48.400;11.770;2024-03-08T07:06:17;96064.00;;;6.20
14851;BMP180;7517;48.400;11.770;2024-03-08T07:08:45;96053.00;;;6.20
14851;BMP180;7517;48.400;11.770;2024-03-08T07:11:12;96062.00;;;6.20
14851;BMP180;7517;48.400;11.770;2024-03-08T07:13:42;96066.00;;;6.30
14851;BMP180;7517;48.400;11.770;2024-03-08T07:16:10;96071.00;;;6.30
14851;BMP180;7517;48.400;11.770;2024-03-08T07:18:37;96065.00;;;6.30
14851;BMP180;7517;48.400;11.770;2024-03-08T07:21:09;96065.00;;;6.40
14851;BMP180;7517;48.400;11.770;2024-03-08T07:23:36;96073.00;;;6.40
14851;BMP180;7517;48.400;11.770;2024-03-08T07:26:39;96074.00;;;6.50
14851;BMP180;7517;48.400;11.770;2024-03-08T07:29:08;96073.00;;;6.60
14851;BMP180;7517;48.400;11.770;2024-03-08T07:31:36;96070.00;;;6.70
14851;BMP180;7517;48.400;11.770;2024-03-08T07:34:16;96075.00;;;6.70
14851;BMP180;7517;48.400;11.770;2024-03-08T07:36:43;96076.00;;;6.80
14851;BMP180;7517;48.400;11.770;2024-03-08T07:39:11;96063.00;;;6.90
14851;BMP180;7517;48.400;11.770;2024-03-08T07:41:39;96066.00;;;7.00
14851;BMP180;7517;48.400;11.770;2024-03-08T07:44:08;96074.00;;;7.10
14851;BMP180;7517;48.400;11.770;2024-03-08T07:46:36;96069.00;;;7.20
14851;BMP180;7517;48.400;11.770;2024-03-08T07:49:04;96065.00;;;7.30
14851;BMP180;7517;48.400;11.770;2024-03-08T07:51:31;96068.00;;;7.40
14851;BMP180;7517;48.400;11.770;2024-03-08T07:54:01;96076.00;;;7.50
14851;BMP180;7517;48.400;11.770;2024-03-08T07:56:30;96065.00;;;7.60
14851;BMP180;7517;48.400;11.770;2024-03-08T07:58:57;96071.00;;;7.70
14851;BMP180;7517;48.400;11.770;2024-03-08T08:01:26;96068.00;;;7.70
14851;BMP180;7517;48.400;11.770;2024-03-08T08:03:54;96061.00;;;7.80
14851;BMP180;7517;48.400;11.770;2024-03-08T08:06:24;96063.00;;;7.90
14851;BMP180;7517;48.400;11.770;2024-03-08T08:08:51;96062.00;;;8.00
14851;BMP180;7517;48.400;11.770;2024-03-08T08:11:19;96054.00;;;8.10
14851;BMP180;7517;48.400;11.770;2024-03-08T08:13:47;96062.00;;;8.20
14851;BMP180;7517;48.400;11.770;2024-03-08T08:16:15;96054.00;;;8.30
14851;BMP180;7517;48.400;11.770;2024-03-08T08:18:45;96054.00;;;8.40
14851;BMP180;7517;48.400;11.770;2024-03-08T08:21:13;96057.00;;;8.40
14851;BMP180;7517;48.400;11.770;2024-03-08T08:23:43;96062.00;;;8.50
14851;BMP180;7517;48.400;11.770;2024-03-08T08:26:13;96052.00;;;8.60
14851;BMP180;7517;48.400;11.770;2024-03-08T08:28:40;96060.00;;;8.70
14851;BMP180;7517;48.400;11.770;2024-03-08T08:31:10;96060.00;;;8.80
14851;BMP180;7517;48.400;11.770;2024-03-08T08:33:37;96059.00;;;8.90
14851;BMP180;7517;48.400;11.770;2024-03-08T08:36:08;96045.00;;;8.90
14851;BMP180;7517;48.400;11.770;2024-03-08T08:38:35;96048.00;;;9.00
14851;BMP180;7517;48.400;11.770;2024-03-08T08:41:04;96047.00;;;9.00
14851;BMP180;7517;48.400;11.770;2024-03-08T08:43:32;96039.00;;;9.00
14851;BMP180;7517;48.400;11.770;2024-03-08T08:46:00;96037.00;;;9.00
14851;BMP180;7517;48.400;11.770;2024-03-08T08:48:28;96032.00;;;9.10
14851;BMP180;7517;48.400;11.770;2024-03-08T08:50:56;96033.00;;;9.20
14851;BMP180;7517;48.400;11.770;2024-03-08T08:53:25;96020.00;;;9.30
14851;BMP180;7517;48.400;11.770;2024-03-08T08:55:53;96020.00;;;9.40
14851;BMP180;7517;48.400;11.770;2024-03-08T08:58:22;96022.00;;;9.50
14851;BMP180;7517;48.400;11.770;2024-03-08T09:00:49;96020.00;;;9.60
14851;BMP180;7517;48.400;11.770;2024-03-08T09:03:18;96024.00;;;9.70
14851;BMP180;7517;48.400;11.770;2024-03-08T09:05:46;96019.00;;;9.80
14851;BMP180;7517;48.400;11.770;2024-03-08T09:08:15;96023.00;;;9.90
14851;BMP180;7517;48.400;11.770;2024-03-08T09:10:44;96023.00;;;10.20
14851;BMP180;7517;48.400;11.770;2024-03-08T09:13:12;96018.00;;;10.40
14851;BMP180;7517;48.400;11.770;2024-03-08T09:15:40;96026.00;;;10.60
14851;BMP180;7517;48.400;11.770;2024-03-08T09:18:07;96018.00;;;10.80
14851;BMP180;7517;48.400;11.770;2024-03-08T09:20:36;96022.00;;;11.00
14851;BMP180;7517;48.400;11.770;2024-03-08T09:23:04;96024.00;;;11.20
14851;BMP180;7517;48.400;11.770;2024-03-08T09:25:31;96017.00;;;11.30
14851;BMP180;7517;48.400;11.770;2024-03-08T09:28:01;96012.00;;;11.40
14851;BMP180;7517;48.400;11.770;2024-03-08T09:30:29;96000.00;;;11.60
14851;BMP180;7517;48.400;11.770;2024-03-08T09:32:57;96005.00;;;12.10
14851;BMP180;7517;48.400;11.770;2024-03-08T09:35:24;96013.00;;;12.50
14851;BMP180;7517;48.400;11.770;2024-03-08T09:37:52;96004.00;;;13.00
14851;BMP180;7517;48.400;11.770;2024-03-08T09:40:20;96004.00;;;13.40
14851;BMP180;7517;48.400;11.770;2024-03-08T09:42:50;96010.00;;;13.80
14851;BMP180;7517;48.400;11.770;2024-03-08T09:45:21;96007.00;;;14.10
14851;BMP180;7517;48.400;11.770;2024-03-08T09:47:49;96010.00;;;14.50
14851;BMP180;7517;48.400;11.770;2024-03-08T09:50:17;96003.00;;;14.70
14851;BMP180;7517;48.400;11.770;2024-03-08T09:52:48;96010.00;;;15.00
14851;BMP180;7517;48.400;11.770;2024-03-08T09:55:17;96004.00;;;15.30
14851;BMP180;7517;48.400;11.770;2024-03-08T09:57:48;96003.00;;;15.60
14851;BMP180;7517;48.400;11.770;2024-03-08T10:00:35;96006.00;;;15.80
14851;BMP180;7517;48.400;11.770;2024-03-08T10:03:06;96005.00;;;16.00
14851;BMP180;7517;48.400;11.770;2024-03-08T10:05:35;95998.00;;;16.20
14851;BMP180;7517;48.400;11.770;2024-03-08T10:08:02;96004.00;;;16.40
14851;BMP180;7517;48.400;11.770;2024-03-08T10:10:30;96002.00;;;16.50
14851;BMP180;7517;48.400;11.770;2024-03-08T10:12:58;96004.00;;;16.60
14851;BMP180;7517;48.400;11.770;2024-03-08T10:15:29;96003.00;;;16.60
14851;BMP180;7517;48.400;11.770;2024-03-08T10:18:00;96000.00;;;16.60
14851;BMP180;7517;48.400;11.770;2024-03-08T10:20:31;95997.00;;;16.70
14851;BMP180;7517;48.400;11.770;2024-03-08T10:23:00;95996.00;;;16.70
14851;BMP180;7517;48.400;11.770;2024-03-08T10:25:29;95998.00;;;16.70
14851;BMP180;7517;48.400;11.770;2024-03-08T10:27:57;95996.00;;;16.80
14851;BMP180;7517;48.400;11.770;2024-03-08T10:30:25;95998.00;;;16.80
14851;BMP180;7517;48.400;11.770;2024-03-08T10:32:53;95995.00;;;16.90
14851;BMP180;7517;48.400;11.770;2024-03-08T10:35:23;95994.00;;;17.00
14851;BMP180;7517;48.400;11.770;2024-03-08T10:37:52;95984.00;;;16.90
14851;BMP180;7517;48.400;11.770;2024-03-08T10:40:27;95984.00;;;16.90
14851;BMP180;7517;48.400;11.770;2024-03-08T10:42:57;95990.00;;;16.90
14851;BMP180;7517;48.400;11.770;2024-03-08T10:45:34;95984.00;;;16.80
14851;BMP180;7517;48.400;11.770;2024-03-08T10:48:28;95984.00;;;16.80
14851;BMP180;7517;48.400;11.770;2024-03-08T10:51:01;95981.00;;;16.80
14851;BMP180;7517;48.400;11.770;2024-03-08T10:53:30;95978.00;;;16.60
14851;BMP180;7517;48.400;11.770;2024-03-08T10:55:58;95974.00;;;16.50
14851;BMP180;7517;48.400;11.770;2024-03-08T10:58:27;95972.00;;;16.30
14851;BMP180;7517;48.400;11.770;2024-03-08T11:00:58;95954.00;;;16.00
14851;BMP180;7517;48.400;11.770;2024-03-08T11:03:54;95965.00;;;15.80
14851;BMP180;7517;48.400;11.770;2024-03-08T11:06:41;95953.00;;;15.50
14851;BMP180;7517;48.400;11.770;2024-03-08T11:09:31;95942.00;;;15.30
14851;BMP180;7517;48.400;11.770;2024-03-08T11:12:25;95946.00;;;15.10
14851;BMP180;7517;48.400;11.770;2024-03-08T11:14:58;95945.00;;;15.00
14851;BMP180;7517;48.400;11.770;2024-03-08T11:17:45;95942.00;;;14.80
14851;BMP180;7517;48.400;11.770;2024-03-08T11:20:14;95942.00;;;14.70
14851;BMP180;7517;48.400;11.770;2024-03-08T11:23:04;95936.00;;;14.40
14851;BMP180;7517;48.400;11.770;2024-03-08T11:25:37;95920.00;;;14.30
14851;BMP180;7517;48.400;11.770;2024-03-08T11:28:11;95928.00;;;14.10
14851;BMP180;7517;48.400;11.770;2024-03-08T11:33:41;95913.00;;;13.80
14851;BMP180;7517;48.400;11.770;2024-03-08T11:36:12;95912.00;;;13.70
14851;BMP180;7517;48.400;11.770;2024-03-08T11:38:44;95899.00;;;13.70
14851;BMP180;7517;48.400;11.770;2024-03-08T11:41:14;95899.00;;;13.60
14851;BMP180;7517;48.400;11.770;2024-03-08T11:43:43;95900.00;;;13.60
14851;BMP180;7517;48.400;11.770;2024-03-08T11:46:12;95902.00;;;13.50
14851;BMP180;7517;48.400;11.770;2024-03-08T11:48:41;95890.00;;;13.50
14851;BMP180;7517;48.400;11.770;2024-03-08T11:51:11;95896.00;;;13.50
14851;BMP180;7517;48.400;11.770;2024-03-08T11:53:39;95893.00;;;13.50
14851;BMP180;7517;48.400;11.770;2024-03-08T11:56:11;95885.00;;;13.40
14851;BMP180;7517;48.400;11.770;2024-03-08T11:58:39;95879.00;;;13.40
14851;BMP180;7517;48.400;11.770;2024-03-08T12:01:10;95874.00;;;13.20
14851;BMP180;7517;48.400;11.770;2024-03-08T12:03:38;95873.00;;;13.20
14851;BMP180;7517;48.400;11.770;2024-03-08T12:06:08;95878.00;;;13.10
14851;BMP180;7517;48.400;11.770;2024-03-08T12:08:36;95870.00;;;13.10
14851;BMP180;7517;48.400;11.770;2024-03-08T12:11:04;95873.00;;;13.10
14851;BMP180;7517;48.400;11.770;2024-03-08T12:13:35;95862.00;;;13.10
14851;BMP180;7517;48.400;11.770;2024-03-08T12:16:03;95864.00;;;13.10
14851;BMP180;7517;48.400;11.770;2024-03-08T12:18:35;95846.00;;;13.10
14851;BMP180;7517;48.400;11.770;2024-03-08T12:21:07;95848.00;;;13.10
14851;BMP180;7517;48.400;11.770;2024-03-08T12:23:37;95856.00;;;13.10
14851;BMP180;7517;48.400;11.770;2024-03-08T12:26:12;95858.00;;;13.20
14851;BMP180;7517;48.400;11.770;2024-03-08T12:28:42;95849.00;;;13.20
14851;BMP180;7517;48.400;11.770;2024-03-08T12:31:12;95851.00;;;13.10
14851;BMP180;7517;48.400;11.770;2024-03-08T12:33:49;95842.00;;;13.10
14851;BMP180;7517;48.400;11.770;2024-03-08T12:36:18;95843.00;;;13.10
14851;BMP180;7517;48.400;11.770;2024-03-08T12:38:46;95832.00;;;13.10
14851;BMP180;7517;48.400;11.770;2024-03-08T12:41:14;95839.00;;;13.10
14851;BMP180;7517;48.400;11.770;2024-03-08T12:43:45;95835.00;;;13.20
14851;BMP180;7517;48.400;11.770;2024-03-08T12:46:14;95824.00;;;13.20
14851;BMP180;7517;48.400;11.770;2024-03-08T12:48:43;95828.00;;;13.20
14851;BMP180;7517;48.400;11.770;2024-03-08T12:51:13;95829.00;;;13.20
14851;BMP180;7517;48.400;11.770;2024-03-08T12:53:41;95826.00;;;13.20
14851;BMP180;7517;48.400;11.770;2024-03-08T12:56:10;95833.00;;;13.20
14851;BMP180;7517;48.400;11.770;2024-03-08T12:58:38;95815.00;;;13.20
14851;BMP180;7517;48.400;11.770;2024-03-08T13:01:08;95821.00;;;13.20
14851;BMP180;7517;48.400;11.770;2024-03-08T13:03:36;95805.00;;;13.20
14851;BMP180;7517;48.400;11.770;2024-03-08T13:06:04;95797.00;;;13.20
14851;BMP180;7517;48.400;11.770;2024-03-08T13:08:34;95802.00;;;13.20
14851;BMP180;7517;48.400;11.770;2024-03-08T13:11:06;95806.00;;;13.20
14851;BMP180;7517;48.400;11.770;2024-03-08T13:13:37;95793.00;;;13.20
14851;BMP180;7517;48.400;11.770;2024-03-08T13:16:08;95788.00;;;13.20
14851;BMP180;7517;48.400;11.770;2024-03-08T13:18:35;95788.00;;;13.20
14851;BMP180;7517;48.400;11.770;2024-03-08T13:21:03;95790.00;;;13.20
14851;BMP180;7517;48.400;11.770;2024-03-08T13:23:33;95779.00;;;13.20
14851;BMP180;7517;48.400;11.770;2024-03-08T13:26:05;95785.00;;;13.20
14851;BMP180;7517;48.400;11.770;2024-03-08T13:28:34;95778.00;;;13.20
14851;BMP180;7517;48.400;11.770;2024-03-08T13:31:04;95779.00;;;13.30
14851;BMP180;7517;48.400;11.770;2024-03-08T13:33:34;95788.00;;;13.30
14851;BMP180;7517;48.400;11.770;2024-03-08T13:36:03;95780.00;;;13.30
14851;BMP180;7517;48.400;11.770;2024-03-08T13:38:32;95780.00;;;13.30
14851;BMP180;7517;48.400;11.770;2024-03-08T13:41:02;95770.00;;;13.30
14851;BMP180;7517;48.400;11.770;2024-03-08T13:43:29;95768.00;;;13.30
14851;BMP180;7517;48.400;11.770;2024-03-08T13:46:00;95766.00;;;13.40
14851;BMP180;7517;48.400;11.770;2024-03-08T13:48:26;95764.00;;;13.30
14851;BMP180;7517;48.400;11.770;2024-03-08T13:50:55;95757.00;;;13.30
14851;BMP180;7517;48.400;11.770;2024-03-08T13:53:23;95760.00;;;13.30
14851;BMP180;7517;48.400;11.770;2024-03-08T13:55:51;95758.00;;;13.30
14851;BMP180;7517;48.400;11.770;2024-03-08T13:58:18;95754.00;;;13.40
14851;BMP180;7517;48.400;11.770;2024-03-08T14:00:46;95751.00;;;13.40
14851;BMP180;7517;48.400;11.770;2024-03-08T14:03:15;95755.00;;;13.40
14851;BMP180;7517;48.400;11.770;2024-03-08T14:05:43;95743.00;;;13.40
14851;BMP180;7517;48.400;11.770;2024-03-08T14:08:14;95745.00;;;13.40
14851;BMP180;7517;48.400;11.770;2024-03-08T14:10:43;95742.00;;;13.40
14851;BMP180;7517;48.400;11.770;2024-03-08T14:13:12;95744.00;;;13.40
14851;BMP180;7517;48.400;11.770;2024-03-08T14:15:42;95742.00;;;13.40
14851;BMP180;7517;48.400;11.770;2024-03-08T14:18:12;95730.00;;;13.40
14851;BMP180;7517;48.400;11.770;2024-03-08T14:20:40;95717.00;;;13.40
14851;BMP180;7517;48.400;11.770;2024-03-08T14:23:08;95723.00;;;13.30
14851;BMP180;7517;48.400;11.770;2024-03-08T14:25:37;95715.00;;;13.40
14851;BMP180;7517;48.400;11.770;2024-03-08T14:28:05;95708.00;;;13.40
14851;BMP180;7517;48.400;11.770;2024-03-08T14:30:33;95705.00;;;13.40